createdAt,value
2022-10-12T00:00:40.304Z,4.00
2022-10-12T00:05:41.821Z,3.90
2022-10-12T00:10:43.340Z,3.90
2022-10-12T00:15:44.913Z,3.90
2022-10-12T00:20:46.427Z,3.90
2022-10-12T00:25:47.948Z,4.00
2022-10-12T00:30:49.454Z,4.00
2022-10-12T00:35:50.966Z,3.80
2022-10-12T00:40:52.461Z,3.70
2022-10-12T00:45:53.971Z,3.70
2022-10-12T00:50:55.490Z,3.70
2022-10-12T00:55:57.046Z,3.70
2022-10-12T01:00:58.657Z,3.60
2022-10-12T01:06:00.214Z,3.60
2022-10-12T01:11:01.725Z,3.50
2022-10-12T01:16:03.253Z,3.50
2022-10-12T01:21:04.793Z,3.50
2022-10-12T01:26:06.318Z,3.40
2022-10-12T01:31:07.833Z,3.40
2022-10-12T01:36:09.351Z,3.30
2022-10-12T01:41:10.874Z,3.20
2022-10-12T01:46:12.381Z,3.20
2022-10-12T01:51:13.908Z,3.20
2022-10-12T01:56:15.426Z,3.10
2022-10-12T02:01:17.018Z,3.20
2022-10-12T02:06:18.718Z,3.20
2022-10-12T02:11:20.250Z,3.20
2022-10-12T02:16:21.771Z,3.20
2022-10-12T02:21:23.282Z,3.20
2022-10-12T02:26:24.802Z,3.10
2022-10-12T02:31:26.324Z,3.10
2022-10-12T02:36:27.864Z,3.00
2022-10-12T02:41:29.372Z,2.90
2022-10-12T02:46:30.892Z,2.90
2022-10-12T02:51:32.421Z,3.00
2022-10-12T02:56:33.944Z,3.00
2022-10-12T03:01:35.522Z,2.90
2022-10-12T03:06:37.096Z,2.90
2022-10-12T03:11:38.618Z,2.90
2022-10-12T03:16:40.150Z,2.90
2022-10-12T03:21:41.701Z,2.90
2022-10-12T03:26:43.235Z,3.00
2022-10-12T03:31:44.748Z,2.90
2022-10-12T03:36:46.274Z,2.90
2022-10-12T03:41:47.808Z,2.90
2022-10-12T03:46:49.334Z,2.90
2022-10-12T03:51:50.847Z,2.90
2022-10-12T03:56:52.350Z,2.90
2022-10-12T04:01:53.926Z,2.90
2022-10-12T04:06:55.526Z,2.90
2022-10-12T04:11:57.062Z,2.80
2022-10-12T04:16:58.602Z,2.70
2022-10-12T04:22:00.146Z,2.60
2022-10-12T04:27:01.676Z,2.60
2022-10-12T04:32:03.188Z,2.50
2022-10-12T04:37:04.721Z,2.50
2022-10-12T04:42:06.251Z,2.40
2022-10-12T04:47:07.767Z,2.40
2022-10-12T04:52:09.272Z,2.40
2022-10-12T04:57:10.786Z,2.40
2022-10-12T05:02:12.328Z,2.30
2022-10-12T05:07:13.867Z,2.30
2022-10-12T05:12:15.383Z,2.20
2022-10-12T05:17:16.916Z,2.10
2022-10-12T05:22:18.434Z,2.10
2022-10-12T05:27:21.984Z,2.10
2022-10-12T05:32:23.491Z,2.10
2022-10-12T05:37:25.018Z,2.00
2022-10-12T05:42:26.546Z,2.10
2022-10-12T05:47:28.096Z,2.10
2022-10-12T05:52:29.656Z,2.10
2022-10-12T05:57:31.170Z,2.10
2022-10-12T06:02:32.687Z,2.20
2022-10-12T06:07:34.214Z,2.40
2022-10-12T06:12:36.030Z,2.70
2022-10-12T06:17:37.790Z,3.10
2022-10-12T06:22:39.660Z,3.50
2022-10-12T06:27:41.628Z,3.90
2022-10-12T06:32:43.156Z,4.30
2022-10-12T06:37:49.870Z,4.70
2022-10-12T06:42:54.944Z,5.10
2022-10-12T06:47:59.184Z,5.50
2022-10-12T06:53:00.706Z,5.90
2022-10-12T06:58:02.210Z,6.30
2022-10-12T07:03:03.753Z,6.80
2022-10-12T07:08:05.272Z,7.50
2022-10-12T07:13:06.786Z,7.90
2022-10-12T07:18:08.314Z,8.20
2022-10-12T07:23:09.824Z,8.70
2022-10-12T07:28:11.404Z,9.10
2022-10-12T07:33:12.970Z,9.50
2022-10-12T07:38:14.466Z,9.90
2022-10-12T07:43:16.588Z,10.30
2022-10-12T07:48:18.287Z,10.80
2022-10-12T07:53:19.805Z,11.10
2022-10-12T07:58:21.328Z,11.90
2022-10-12T08:03:22.876Z,12.20
2022-10-12T08:08:24.450Z,12.40
2022-10-12T08:13:25.952Z,12.90
2022-10-12T08:18:27.466Z,13.60
2022-10-12T08:23:29.196Z,13.90
2022-10-12T08:28:30.776Z,14.30
2022-10-12T08:33:32.527Z,14.40
2022-10-12T08:38:34.056Z,14.60
2022-10-12T08:43:35.585Z,14.90
2022-10-12T08:48:37.133Z,15.10
2022-10-12T08:53:38.657Z,15.40
2022-10-12T08:58:40.167Z,15.60
2022-10-12T09:03:41.683Z,15.90
2022-10-12T09:08:43.208Z,16.10
2022-10-12T09:13:44.856Z,16.30
2022-10-12T09:18:46.401Z,16.70
2022-10-12T09:23:47.934Z,16.90
2022-10-12T09:28:49.643Z,17.00
2022-10-12T09:33:51.310Z,17.00
2022-10-12T09:38:52.834Z,17.10
2022-10-12T09:43:54.350Z,17.50
2022-10-12T09:48:55.856Z,17.70
2022-10-12T09:53:57.900Z,17.50
2022-10-12T09:58:59.490Z,17.70
2022-10-12T10:04:01.162Z,17.80
2022-10-12T10:09:02.694Z,17.90
2022-10-12T10:14:04.249Z,17.90
2022-10-12T10:19:05.770Z,18.20
2022-10-12T10:24:07.293Z,18.30
2022-10-12T10:29:08.817Z,18.50
2022-10-12T10:34:10.328Z,18.80
2022-10-12T10:39:11.850Z,18.90
2022-10-12T10:44:13.373Z,19.00
2022-10-12T10:49:14.889Z,19.10
2022-10-12T10:54:16.411Z,19.30
2022-10-12T10:59:17.981Z,19.30
2022-10-12T11:04:19.515Z,19.10
2022-10-12T11:09:21.014Z,18.90
2022-10-12T11:14:22.546Z,19.10
2022-10-12T11:19:24.067Z,19.20
2022-10-12T11:24:25.591Z,19.40
2022-10-12T11:29:27.114Z,19.40
2022-10-12T11:34:28.644Z,19.50
2022-10-12T11:39:30.174Z,19.70
2022-10-12T11:44:31.693Z,19.50
2022-10-12T11:49:33.454Z,19.30
2022-10-12T11:54:34.990Z,19.00
2022-10-12T11:59:36.496Z,18.60
2022-10-12T12:04:42.799Z,18.60
2022-10-12T12:09:50.090Z,18.40
2022-10-12T12:14:52.220Z,18.40
2022-10-12T12:19:53.733Z,18.20
2022-10-12T12:24:55.245Z,18.30
2022-10-12T12:29:56.767Z,18.30
2022-10-12T12:35:00.628Z,18.20
2022-10-12T12:40:02.505Z,18.40
2022-10-12T12:45:04.053Z,18.20
2022-10-12T12:50:05.600Z,18.10
2022-10-12T12:55:07.105Z,17.80
2022-10-12T13:00:08.627Z,17.90
2022-10-12T13:05:10.170Z,17.80
2022-10-12T13:10:11.706Z,17.80
2022-10-12T13:15:13.232Z,17.90
2022-10-12T13:20:14.782Z,17.60
2022-10-12T13:25:16.301Z,17.50
2022-10-12T13:30:17.818Z,17.40
2022-10-12T13:35:19.329Z,17.20
2022-10-12T13:40:20.886Z,17.20
2022-10-12T13:45:22.401Z,17.10
2022-10-12T13:50:23.967Z,17.10
2022-10-12T13:55:25.481Z,16.90
2022-10-12T14:00:26.998Z,16.80
2022-10-12T14:05:28.522Z,16.70
2022-10-12T14:10:30.041Z,16.60
2022-10-12T14:15:31.571Z,16.50
2022-10-12T14:20:33.104Z,16.40
2022-10-12T14:25:34.618Z,16.30
2022-10-12T14:30:36.141Z,16.20
2022-10-12T14:35:37.665Z,16.10
2022-10-12T14:40:39.181Z,16.10
2022-10-12T14:45:40.719Z,16.00
2022-10-12T14:50:42.228Z,16.00
2022-10-12T14:55:43.753Z,15.80
2022-10-12T15:06:03.730Z,15.70
2022-10-12T15:11:05.249Z,15.50
2022-10-12T15:16:06.831Z,15.30
2022-10-12T15:21:08.366Z,15.10
2022-10-12T15:26:09.909Z,14.90
2022-10-12T15:31:17.615Z,14.70
2022-10-12T15:36:20.034Z,14.50
2022-10-12T15:41:21.554Z,14.20
2022-10-12T15:46:23.106Z,14.10
2022-10-12T15:51:24.612Z,13.90
2022-10-12T15:56:26.126Z,13.80
2022-10-12T16:01:27.704Z,13.60
2022-10-12T16:06:29.265Z,13.30
2022-10-12T16:11:30.783Z,13.20
2022-10-12T16:16:32.345Z,13.00
2022-10-12T16:21:33.881Z,12.90
2022-10-12T16:26:35.401Z,12.60
2022-10-12T16:31:36.965Z,12.50
2022-10-12T16:36:38.537Z,12.40
2022-10-12T16:41:40.084Z,12.30
2022-10-12T16:46:41.623Z,12.10
2022-10-12T16:51:43.157Z,12.00
2022-10-12T16:56:44.675Z,11.80
2022-10-12T17:01:46.187Z,11.70
2022-10-12T17:06:47.738Z,11.60
2022-10-12T17:11:49.268Z,11.50
2022-10-12T17:16:50.804Z,11.30
2022-10-12T17:21:52.370Z,11.10
2022-10-12T17:26:53.920Z,11.00
2022-10-12T17:31:55.442Z,10.90
2022-10-12T17:36:56.973Z,10.70
2022-10-12T17:41:58.579Z,10.60
2022-10-12T17:47:00.084Z,10.50
2022-10-12T17:52:01.596Z,10.40
2022-10-12T17:57:03.125Z,10.30
2022-10-12T18:02:09.178Z,10.30
2022-10-12T18:07:11.129Z,10.30
2022-10-12T18:12:12.649Z,10.20
2022-10-12T18:17:14.186Z,10.10
2022-10-12T18:22:15.905Z,10.00
2022-10-12T18:27:17.714Z,9.90
2022-10-12T18:32:19.665Z,9.80
2022-10-12T18:37:21.510Z,9.70
2022-10-12T18:42:23.037Z,9.70
2022-10-12T18:47:24.703Z,9.50
2022-10-12T18:52:26.242Z,9.40
2022-10-12T18:57:31.590Z,9.30
2022-10-12T19:02:34.346Z,9.20
2022-10-12T19:07:35.899Z,9.10
2022-10-12T19:12:38.118Z,9.10
2022-10-12T19:17:41.691Z,9.10
2022-10-12T19:22:43.208Z,9.00
2022-10-12T19:27:44.721Z,9.00
2022-10-12T19:32:46.252Z,8.90
2022-10-12T19:37:47.757Z,8.80
2022-10-12T19:42:51.343Z,8.70
2022-10-12T19:47:52.874Z,8.70
2022-10-12T19:52:54.381Z,8.60
2022-10-12T19:57:55.902Z,8.50
2022-10-12T20:02:57.406Z,8.50
2022-10-12T20:07:58.917Z,8.40
2022-10-12T20:13:00.448Z,8.40
2022-10-12T20:18:01.979Z,8.40
2022-10-12T20:23:03.511Z,8.30
2022-10-12T20:28:05.040Z,8.20
2022-10-12T20:33:06.565Z,8.10
2022-10-12T20:38:08.099Z,7.90
2022-10-12T20:43:09.641Z,7.80
2022-10-12T20:48:11.171Z,7.70
2022-10-12T20:53:12.711Z,7.60
2022-10-12T20:58:14.220Z,7.50
2022-10-12T21:03:15.724Z,7.50
2022-10-12T21:08:17.235Z,7.40
2022-10-12T21:13:18.755Z,7.40
2022-10-12T21:18:20.277Z,7.30
2022-10-12T21:23:21.797Z,7.20
2022-10-12T21:28:23.471Z,7.10
2022-10-12T21:33:25.082Z,7.10
2022-10-12T21:38:26.610Z,7.00
2022-10-12T21:43:28.133Z,6.90
2022-10-12T21:48:29.655Z,6.80
2022-10-12T21:53:31.173Z,6.80
2022-10-12T21:58:32.680Z,6.70
2022-10-12T22:09:00.057Z,6.60
2022-10-12T22:14:01.590Z,6.50
2022-10-12T22:19:03.111Z,6.50
2022-10-12T22:24:04.634Z,6.40
2022-10-12T22:29:06.173Z,6.40
2022-10-12T22:34:07.692Z,6.40
2022-10-12T22:39:09.249Z,6.40
2022-10-12T22:49:36.861Z,6.40
2022-10-12T22:54:38.383Z,6.30
2022-10-12T22:59:39.904Z,6.30
2022-10-12T23:04:41.433Z,6.20
2022-10-12T23:09:42.958Z,6.20
2022-10-12T23:14:44.466Z,6.10
2022-10-12T23:19:45.971Z,6.10
2022-10-12T23:24:47.480Z,6.10
2022-10-12T23:29:49.003Z,6.00
2022-10-12T23:34:50.543Z,6.00
2022-10-12T23:39:52.071Z,6.00
2022-10-12T23:44:53.607Z,6.10
2022-10-12T23:49:55.111Z,6.00
2022-10-12T23:54:56.632Z,6.00
2022-10-12T23:59:58.161Z,6.10
